Time;durP1;ratioP1;P1;durP2;ratioP2;P2;SDS_P1;SDS_P2;PMS_P1;PMS_P2;Temp;Humidity;BMP_temperature;BMP_pressure;BME280_temperature;BME280_humidity;BME280_pressure;Samples;Min_cycle;Max_cycle;Signal;HPM_P1;HPM_P2
2021/04/11 00:00:59;;;;;;;70.75;36.92;;;;;;;;;;5112417;28;20039;-74
2021/04/11 00:03:27;;;;;;;78.32;37.83;;;;;;;;;;5112443;28;20088;-71
2021/04/11 00:05:53;;;;;;;77.70;38.80;;;;;;;;;;5113798;28;20047;-71
2021/04/11 00:08:20;;;;;;;79.85;37.38;;;;;;;;;;5112634;28;20044;-72
2021/04/11 00:10:46;;;;;;;69.20;33.08;;;;;;;;;;5113954;28;20024;-72
2021/04/11 00:13:14;;;;;;;56.42;29.52;;;;;;;;;;5113783;28;20030;-72
2021/04/11 00:15:40;;;;;;;49.88;26.45;;;;;;;;;;5113470;28;20149;-72
2021/04/11 00:18:07;;;;;;;73.07;33.97;;;;;;;;;;5113766;28;20068;-71
2021/04/11 00:20:33;;;;;;;81.32;37.88;;;;;;;;;;5113342;28;20098;-72
2021/04/11 00:22:58;;;;;;;83.72;38.78;;;;;;;;;;5112019;28;20181;-71
2021/04/11 00:25:26;;;;;;;76.10;36.78;;;;;;;;;;5113313;28;20019;-72
2021/04/11 00:27:51;;;;;;;72.68;34.75;;;;;;;;;;5113307;28;20024;-71
2021/04/11 00:30:17;;;;;;;53.95;27.25;;;;;;;;;;5113285;28;20016;-72
2021/04/11 00:32:43;;;;;;;52.53;26.23;;;;;;;;;;5113266;28;20039;-71
2021/04/11 00:35:09;;;;;;;45.53;23.90;;;;;;;;;;5112886;28;20024;-71
2021/04/11 00:37:35;;;;;;;46.92;24.88;;;;;;;;;;5111922;28;20032;-72
2021/04/11 00:40:01;;;;;;;53.97;26.15;;;;;;;;;;5112309;28;20476;-70
2021/04/11 00:42:31;;;;;;;46.67;24.52;;;;;;;;;;5113663;28;20346;-71
2021/04/11 00:45:20;;;;;;;51.17;25.77;;;;;;;;;;5112198;28;20130;-71
2021/04/11 00:47:45;;;;;;;51.08;26.13;;;;;;;;;;5104560;28;20100;-70
2021/04/11 00:50:12;;;;;;;49.65;25.20;;;;;;;;;;5112094;28;20415;-71
2021/04/11 00:52:38;;;;;;;47.17;23.85;;;;;;;;;;5114993;28;20058;-72
2021/04/11 00:55:04;;;;;;;44.50;23.52;;;;;;;;;;5132847;27;20051;-71
2021/04/11 00:57:30;;;;;;;43.60;22.40;;;;;;;;;;5115238;28;20063;-71
2021/04/11 00:59:56;;;;;;;44.97;23.00;;;;;;;;;;5115676;28;20106;-72
2021/04/11 01:02:22;;;;;;;46.22;21.55;;;;;;;;;;5132632;27;20030;-72
2021/04/11 01:04:48;;;;;;;40.72;20.60;;;;;;;;;;5116978;28;20019;-73
2021/04/11 01:07:16;;;;;;;40.03;20.60;;;;;;;;;;5115665;28;20035;-74
2021/04/11 01:09:45;;;;;;;38.85;20.20;;;;;;;;;;5115300;28;20111;-74
2021/04/11 01:12:13;;;;;;;37.90;20.38;;;;;;;;;;5115375;28;20087;-74
2021/04/11 01:14:38;;;;;;;40.55;19.90;;;;;;;;;;5115547;28;20487;-74
2021/04/11 01:17:08;;;;;;;37.53;19.33;;;;;;;;;;5115592;28;20072;-72
2021/04/11 01:19:35;;;;;;;;;;;;;;;;;;5115692;28;20028;-71
2021/04/11 01:22:06;;;;;;;38.10;21.08;;;;;;;;;;5116544;28;20360;-72
2021/04/11 01:24:41;;;;;;;36.90;19.77;;;;;;;;;;5115155;28;20517;-72
2021/04/11 01:27:11;;;;;;;36.00;19.52;;;;;;;;;;5115262;28;20081;-72
2021/04/11 01:29:37;;;;;;;34.05;19.05;;;;;;;;;;5114915;28;20164;-72
2021/04/11 01:32:05;;;;;;;34.80;19.05;;;;;;;;;;5114667;28;20431;-72
2021/04/11 01:34:31;;;;;;;35.13;18.83;;;;;;;;;;5115985;28;20031;-72
2021/04/11 01:36:58;;;;;;;36.40;19.73;;;;;;;;;;5132047;27;20097;-72
2021/04/11 01:39:26;;;;;;;33.40;18.80;;;;;;;;;;5114686;28;20050;-72
2021/04/11 01:41:54;;;;;;;36.22;18.70;;;;;;;;;;5115069;28;20023;-72
2021/04/11 01:44:22;;;;;;;36.67;19.20;;;;;;;;;;5114860;28;20020;-72
2021/04/11 01:46:48;;;;;;;33.15;18.52;;;;;;;;;;5116283;28;20031;-70
2021/04/11 01:49:16;;;;;;;39.80;18.70;;;;;;;;;;5114889;28;20064;-70
2021/04/11 01:51:43;;;;;;;30.35;18.48;;;;;;;;;;5131809;27;20089;-70
2021/04/11 01:54:09;;;;;;;34.42;19.52;;;;;;;;;;5114396;28;20031;-70
2021/04/11 01:56:40;;;;;;;32.60;18.55;;;;;;;;;;5113870;28;20035;-70
2021/04/11 01:59:12;;;;;;;32.85;18.13;;;;;;;;;;5115549;28;20476;-70
2021/04/11 02:01:41;;;;;;;31.33;17.60;;;;;;;;;;5114427;28;20032;-71
2021/04/11 02:04:07;;;;;;;34.63;17.80;;;;;;;;;;5112713;28;20031;-76
2021/04/11 02:06:43;;;;;;;35.80;19.33;;;;;;;;;;5114676;28;20036;-76
2021/04/11 02:09:22;;;;;;;34.78;18.38;;;;;;;;;;5114491;28;20035;-76
2021/04/11 02:12:03;;;;;;;32.30;18.00;;;;;;;;;;5129995;27;20059;-76
2021/04/11 02:14:30;;;;;;;27.92;16.70;;;;;;;;;;5131225;27;20031;-75
2021/04/11 02:16:56;;;;;;;31.10;17.27;;;;;;;;;;5115735;28;20023;-76
2021/04/11 02:19:26;;;;;;;26.63;16.10;;;;;;;;;;5115546;28;20020;-77
2021/04/11 02:21:56;;;;;;;28.55;16.38;;;;;;;;;;5113760;28;20469;-77
2021/04/11 02:24:22;;;;;;;27.05;15.45;;;;;;;;;;5114267;28;20024;-76
2021/04/11 02:26:47;;;;;;;27.52;15.30;;;;;;;;;;5113856;28;20092;-75
2021/04/11 02:29:15;;;;;;;24.95;14.68;;;;;;;;;;5131019;27;20449;-75
2021/04/11 02:31:40;;;;;;;27.63;15.63;;;;;;;;;;5115169;28;20027;-76
2021/04/11 02:34:21;;;;;;;27.58;15.23;;;;;;;;;;5113919;28;20463;-78
2021/04/11 02:36:48;;;;;;;26.60;14.70;;;;;;;;;;5113524;28;20027;-77
2021/04/11 02:39:27;;;;;;;26.77;14.93;;;;;;;;;;5113346;28;20016;-78
2021/04/11 02:41:54;;;;;;;24.98;14.27;;;;;;;;;;5114653;28;20046;-78
2021/04/11 02:44:22;;;;;;;25.10;13.95;;;;;;;;;;5113236;28;20057;-78
2021/04/11 02:46:48;;;;;;;27.65;14.45;;;;;;;;;;5130373;27;20028;-78
2021/04/11 02:49:17;;;;;;;26.05;13.95;;;;;;;;;;5114396;28;20106;-75
2021/04/11 02:51:44;;;;;;;24.20;12.90;;;;;;;;;;5113245;28;20023;-75
2021/04/11 02:54:16;;;;;;;28.15;13.45;;;;;;;;;;5113009;28;20024;-75
2021/04/11 02:56:44;;;;;;;24.65;13.77;;;;;;;;;;5112759;28;20039;-75
2021/04/11 02:59:14;;;;;;;21.90;13.27;;;;;;;;;;5113119;28;20031;-70
2021/04/11 03:01:43;;;;;;;24.58;13.82;;;;;;;;;;5113166;28;20039;-71
2021/04/11 03:04:14;;;;;;;23.95;14.48;;;;;;;;;;5112888;28;20106;-70
2021/04/11 03:06:42;;;;;;;24.05;13.95;;;;;;;;;;5114234;28;20452;-70
2021/04/11 03:09:13;;;;;;;26.73;13.85;;;;;;;;;;5112868;28;20110;-70
2021/04/11 03:11:50;;;;;;;31.27;15.82;;;;;;;;;;5114031;28;20028;-71
2021/04/11 03:14:23;;;;;;;48.45;25.75;;;;;;;;;;5112469;28;20031;-75
2021/04/11 03:16:51;;;;;;;33.92;18.25;;;;;;;;;;5112752;28;20036;-76
2021/04/11 03:19:28;;;;;;;29.13;16.88;;;;;;;;;;5129994;27;20478;-77
2021/04/11 03:21:56;;;;;;;23.85;13.75;;;;;;;;;;5114407;28;20465;-77
2021/04/11 03:24:26;;;;;;;21.83;13.45;;;;;;;;;;5114278;28;20084;-78
2021/04/11 03:27:10;;;;;;;23.47;13.13;;;;;;;;;;5113827;28;20032;-76
2021/04/11 03:29:51;;;;;;;23.35;12.52;;;;;;;;;;5112728;28;20028;-77
2021/04/11 03:32:20;;;;;;;26.08;14.07;;;;;;;;;;5113884;28;20034;-78
2021/04/11 03:34:50;;;;;;;21.83;13.02;;;;;;;;;;5112453;28;20472;-77
2021/04/11 03:37:18;;;;;;;20.80;12.45;;;;;;;;;;5112461;28;20024;-77
2021/04/11 03:39:44;;;;;;;21.27;11.70;;;;;;;;;;5112459;28;20061;-76
2021/04/11 03:42:13;;;;;;;21.65;12.18;;;;;;;;;;5112420;28;20496;-75
2021/04/11 03:44:40;;;;;;;22.33;12.25;;;;;;;;;;5113695;28;20051;-76
2021/04/11 03:47:30;;;;;;;20.10;11.60;;;;;;;;;;5112682;28;20036;-77
2021/04/11 03:49:56;;;;;;;19.40;10.90;;;;;;;;;;5129636;28;20114;-76
2021/04/11 03:52:24;;;;;;;21.40;11.18;;;;;;;;;;5111984;28;20688;-77
2021/04/11 03:54:49;;;;;;;23.10;12.32;;;;;;;;;;5112822;28;20035;-77
2021/04/11 03:57:21;;;;;;;22.23;12.95;;;;;;;;;;5112097;28;20035;-77
2021/04/11 04:00:07;;;;;;;21.23;11.80;;;;;;;;;;5112958;28;20035;-77
2021/04/11 04:02:41;;;;;;;20.95;11.57;;;;;;;;;;5129116;28;20047;-77
2021/04/11 04:05:10;;;;;;;21.33;11.68;;;;;;;;;;5112781;28;20368;-76
2021/04/11 04:07:46;;;;;;;21.73;11.00;;;;;;;;;;5112316;28;20031;-75
2021/04/11 04:10:12;;;;;;;20.90;10.90;;;;;;;;;;5129563;28;20038;-76
2021/04/11 04:12:51;;;;;;;20.35;11.40;;;;;;;;;;5129610;28;20027;-77
2021/04/11 04:15:41;;;;;;;18.40;10.68;;;;;;;;;;5112536;28;20062;-77
2021/04/11 04:18:18;;;;;;;17.98;11.30;;;;;;;;;;5104957;28;20043;-77
2021/04/11 04:21:03;;;;;;;29.42;11.82;;;;;;;;;;5114113;28;20533;-77
2021/04/11 04:23:41;;;;;;;18.10;10.57;;;;;;;;;;5114147;28;20028;-77
2021/04/11 04:26:25;;;;;;;20.10;12.05;;;;;;;;;;5112704;28;20023;-78
2021/04/11 04:29:00;;;;;;;20.63;11.65;;;;;;;;;;5116418;28;20042;-76
2021/04/11 04:31:26;;;;;;;17.77;11.80;;;;;;;;;;5117586;28;20023;-76
2021/04/11 04:33:54;;;;;;;20.52;12.02;;;;;;;;;;5116069;28;20031;-75
2021/04/11 04:36:26;;;;;;;18.60;10.82;;;;;;;;;;5116233;28;20024;-76
2021/04/11 04:39:16;;;;;;;18.73;11.13;;;;;;;;;;5116001;28;20037;-76
2021/04/11 04:42:05;;;;;;;21.10;11.13;;;;;;;;;;5117066;28;20039;-80
2021/04/11 04:44:52;;;;;;;19.15;11.85;;;;;;;;;;5133131;27;20040;-79
2021/04/11 04:47:31;;;;;;;18.42;11.45;;;;;;;;;;5116043;28;20377;-79
2021/04/11 04:50:28;;;;;;;19.92;10.63;;;;;;;;;;5115900;28;20039;-78
2021/04/11 04:53:04;;;;;;;17.10;10.45;;;;;;;;;;5116134;28;20031;-77
2021/04/11 04:55:34;;;;;;;17.65;10.35;;;;;;;;;;5115701;28;20028;-78
2021/04/11 04:58:02;;;;;;;16.13;9.93;;;;;;;;;;5115281;28;20092;-78
2021/04/11 05:00:50;;;;;;;34.63;17.27;;;;;;;;;;5115525;28;20037;-78
2021/04/11 05:03:51;;;;;;;37.65;18.15;;;;;;;;;;5115465;28;20047;-76
2021/04/11 05:06:24;;;;;;;28.77;16.42;;;;;;;;;;5114393;28;20040;-76
2021/04/11 05:09:02;;;;;;;19.88;11.20;;;;;;;;;;5115493;28;20062;-76
2021/04/11 05:12:02;;;;;;;17.67;10.35;;;;;;;;;;5115694;28;20051;-77
2021/04/11 05:14:30;;;;;;;16.58;10.15;;;;;;;;;;5070492;28;20096;-75
2021/04/11 05:17:19;;;;;;;19.58;11.75;;;;;;;;;;5115496;28;20047;-78
2021/04/11 05:19:50;;;;;;;14.63;9.25;;;;;;;;;;5101932;28;20131;-77
2021/04/11 05:22:30;;;;;;;15.65;8.43;;;;;;;;;;5115508;28;20066;-77
2021/04/11 05:25:13;;;;;;;15.55;8.95;;;;;;;;;;5115415;28;20515;-77
2021/04/11 05:27:49;;;;;;;22.88;12.75;;;;;;;;;;5115042;28;20027;-78
2021/04/11 05:30:16;;;;;;;25.35;13.10;;;;;;;;;;5115503;28;20368;-77
2021/04/11 05:32:41;;;;;;;23.73;13.32;;;;;;;;;;5116411;28;20383;-75
2021/04/11 05:35:08;;;;;;;19.20;11.20;;;;;;;;;;5116083;28;20023;-78
2021/04/11 05:37:52;;;;;;;20.02;12.32;;;;;;;;;;5114915;28;20118;-75
2021/04/11 05:40:31;;;;;;;20.10;10.48;;;;;;;;;;5116379;28;20034;-78
2021/04/11 05:43:12;;;;;;;23.70;11.18;;;;;;;;;;5108424;28;20031;-78
2021/04/11 05:45:56;;;;;;;20.33;9.85;;;;;;;;;;5115307;28;20023;-77
2021/04/11 05:48:47;;;;;;;11.63;7.88;;;;;;;;;;5115135;28;20055;-78
2021/04/11 05:51:30;;;;;;;10.80;6.97;;;;;;;;;;5115226;28;20060;-78
2021/04/11 05:54:03;;;;;;;10.85;6.72;;;;;;;;;;5115113;28;20028;-78
2021/04/11 05:56:34;;;;;;;8.50;5.80;;;;;;;;;;5114677;28;20038;-78
2021/04/11 05:59:22;;;;;;;12.50;6.45;;;;;;;;;;5114352;28;20023;-78
2021/04/11 06:01:52;;;;;;;8.10;5.45;;;;;;;;;;5114894;28;20062;-78
2021/04/11 06:04:24;;;;;;;11.02;5.50;;;;;;;;;;5115132;28;20035;-78
2021/04/11 06:07:01;;;;;;;9.75;5.90;;;;;;;;;;5115131;28;20042;-78
2021/04/11 06:12:38;;;;;;;12.13;6.85;;;;;;;;;;5114399;28;20039;-78
2021/04/11 06:15:27;;;;;;;10.90;6.68;;;;;;;;;;5114232;28;20465;-79
2021/04/11 06:18:05;;;;;;;11.73;6.93;;;;;;;;;;5114544;28;20020;-78
2021/04/11 06:20:35;;;;;;;11.68;6.53;;;;;;;;;;5130526;27;20426;-79
2021/04/11 06:23:20;;;;;;;10.00;5.95;;;;;;;;;;5114800;28;20023;-78
2021/04/11 06:26:07;;;;;;;9.02;5.10;;;;;;;;;;5114685;28;20024;-78
2021/04/11 06:29:03;;;;;;;7.75;5.07;;;;;;;;;;5114878;28;20032;-78
2021/04/11 06:34:46;;;;;;;10.43;5.82;;;;;;;;;;5114164;28;20127;-78
2021/04/11 06:37:17;;;;;;;9.48;5.38;;;;;;;;;;5114470;28;20035;-78
2021/04/11 06:39:54;;;;;;;;;;;;;;;;;;5113636;28;20019;-78
2021/04/11 06:42:30;;;;;;;6.32;4.22;;;;;;;;;;5114285;28;19911;-78
2021/04/11 06:45:04;;;;;;;7.38;4.60;;;;;;;;;;5114280;28;20027;-78
2021/04/11 06:47:49;;;;;;;10.38;4.82;;;;;;;;;;5114222;28;20050;-78
2021/04/11 06:50:34;;;;;;;7.43;4.38;;;;;;;;;;5106355;28;20024;-78
2021/04/11 06:53:23;;;;;;;5.97;4.43;;;;;;;;;;5126982;27;20120;-79
2021/04/11 06:55:58;;;;;;;7.40;4.55;;;;;;;;;;5111234;28;20045;-78
2021/04/11 06:58:35;;;;;;;7.97;4.55;;;;;;;;;;5111503;28;20138;-78
2021/04/11 07:04:11;;;;;;;10.13;4.97;;;;;;;;;;5110774;28;20114;-79
2021/04/11 07:07:01;;;;;;;7.10;4.88;;;;;;;;;;5111427;28;20123;-79
2021/04/11 07:09:46;;;;;;;12.25;5.20;;;;;;;;;;5111114;28;20024;-79
2021/04/11 07:12:21;;;;;;;7.88;4.70;;;;;;;;;;5109676;28;20036;-79
2021/04/11 07:15:14;;;;;;;7.55;4.78;;;;;;;;;;5108721;28;20396;-79
2021/04/11 07:17:51;;;;;;;5.22;4.03;;;;;;;;;;5110591;28;20028;-78
2021/04/11 07:20:37;;;;;;;8.75;4.25;;;;;;;;;;5110704;28;20448;-78
2021/04/11 07:23:11;;;;;;;8.93;4.53;;;;;;;;;;5124748;27;20027;-74
2021/04/11 07:25:55;;;;;;;6.18;4.53;;;;;;;;;;5109015;28;20795;-74
2021/04/11 07:28:48;;;;;;;7.22;3.88;;;;;;;;;;5109820;28;20031;-75
2021/04/11 07:31:26;;;;;;;4.70;3.00;;;;;;;;;;5105976;28;20051;-74
2021/04/11 07:33:58;;;;;;;4.38;3.10;;;;;;;;;;5108472;28;20035;-71
2021/04/11 07:36:27;;;;;;;4.25;3.10;;;;;;;;;;5107288;28;20036;-75
2021/04/11 07:39:12;;;;;;;4.93;3.35;;;;;;;;;;5108526;28;20024;-75
2021/04/11 07:41:56;;;;;;;9.23;3.40;;;;;;;;;;5110189;28;20028;-76
2021/04/11 07:44:22;;;;;;;3.55;2.90;;;;;;;;;;5114191;28;20035;-71
2021/04/11 07:47:06;;;;;;;5.10;3.00;;;;;;;;;;5129634;27;20476;-71
2021/04/11 07:49:50;;;;;;;6.30;3.10;;;;;;;;;;5112306;28;20388;-71
2021/04/11 07:52:16;;;;;;;4.18;2.47;;;;;;;;;;5111560;28;20023;-71
2021/04/11 07:54:46;;;;;;;3.13;2.42;;;;;;;;;;5112238;28;20029;-71
2021/04/11 07:57:30;;;;;;;3.60;2.47;;;;;;;;;;5112025;28;20066;-71
2021/04/11 08:00:14;;;;;;;3.28;2.38;;;;;;;;;;5112604;28;20024;-71
2021/04/11 08:02:43;;;;;;;3.00;2.33;;;;;;;;;;5114806;28;20027;-71
2021/04/11 08:05:18;;;;;;;4.78;3.30;;;;;;;;;;5117493;28;20069;-71
2021/04/11 08:07:46;;;;;;;4.32;2.63;;;;;;;;;;5117645;28;20035;-71
2021/04/11 08:10:30;;;;;;;3.78;2.60;;;;;;;;;;5117530;28;20106;-71
2021/04/11 08:13:05;;;;;;;4.47;2.00;;;;;;;;;;5117195;28;20115;-71
2021/04/11 08:15:30;;;;;;;3.38;2.20;;;;;;;;;;5117332;28;20028;-71
2021/04/11 08:18:19;;;;;;;2.17;1.90;;;;;;;;;;5117545;28;20026;-71
2021/04/11 08:20:44;;;;;;;2.38;2.20;;;;;;;;;;5116123;28;20393;-71
2021/04/11 08:23:16;;;;;;;2.58;2.38;;;;;;;;;;5133334;27;20015;-71
2021/04/11 08:25:46;;;;;;;3.38;2.58;;;;;;;;;;5117255;28;20035;-71
2021/04/11 08:28:18;;;;;;;2.47;2.28;;;;;;;;;;5116046;28;20028;-71
2021/04/11 08:30:55;;;;;;;4.30;2.25;;;;;;;;;;5115944;28;20069;-71
2021/04/11 08:33:44;;;;;;;2.58;1.98;;;;;;;;;;5117091;28;20084;-71
2021/04/11 08:36:24;;;;;;;4.45;2.20;;;;;;;;;;5117014;28;20465;-71
2021/04/11 08:39:08;;;;;;;3.22;2.53;;;;;;;;;;5117246;28;20480;-71
2021/04/11 08:41:41;;;;;;;3.33;2.38;;;;;;;;;;5116943;28;20020;-71
2021/04/11 08:44:15;;;;;;;6.25;2.40;;;;;;;;;;5116938;28;20028;-71
2021/04/11 08:46:56;;;;;;;3.03;2.38;;;;;;;;;;5116822;28;20031;-71
2021/04/11 08:49:21;;;;;;;;;;;;;;;;;;5115951;28;20084;-71
2021/04/11 08:51:50;;;;;;;1.83;1.73;;;;;;;;;;5116767;28;19907;-71
2021/04/11 08:54:22;;;;;;;3.28;1.75;;;;;;;;;;5116584;28;20285;-70
2021/04/11 08:56:54;;;;;;;4.32;1.92;;;;;;;;;;5116180;28;20512;-71
2021/04/11 08:59:22;;;;;;;2.92;2.15;;;;;;;;;;5116688;28;20035;-71
2021/04/11 09:01:48;;;;;;;2.50;2.30;;;;;;;;;;5116622;28;20008;-71
2021/04/11 09:04:31;;;;;;;2.08;1.83;;;;;;;;;;5116691;28;20038;-71
2021/04/11 09:07:00;;;;;;;2.17;1.85;;;;;;;;;;5132105;27;20472;-71
2021/04/11 09:09:55;;;;;;;1.98;1.83;;;;;;;;;;5115222;28;20027;-71
2021/04/11 09:12:27;;;;;;;1.70;1.60;;;;;;;;;;5097214;28;20067;-71
2021/04/11 09:15:10;;;;;;;3.00;2.10;;;;;;;;;;5115059;28;20031;-71
2021/04/11 09:17:48;;;;;;;2.88;1.90;;;;;;;;;;5116306;28;20023;-71
2021/04/11 09:20:17;;;;;;;4.13;2.00;;;;;;;;;;5116369;28;20032;-71
2021/04/11 09:22:43;;;;;;;5.65;2.67;;;;;;;;;;5116311;28;20537;-71
2021/04/11 09:25:12;;;;;;;5.43;2.42;;;;;;;;;;5116219;28;20047;-71
2021/04/11 09:27:43;;;;;;;7.70;3.40;;;;;;;;;;5116191;27;20035;-71
2021/04/11 09:30:17;;;;;;;5.45;2.33;;;;;;;;;;5114682;28;20036;-70
2021/04/11 09:33:01;;;;;;;12.75;3.20;;;;;;;;;;5116033;28;20055;-70
2021/04/11 09:35:56;;;;;;;2.83;1.55;;;;;;;;;;5131681;27;20036;-71
2021/04/11 09:38:21;;;;;;;3.55;2.15;;;;;;;;;;5097087;28;20462;-71
2021/04/11 09:40:52;;;;;;;2.65;2.08;;;;;;;;;;5115877;28;20102;-71
2021/04/11 09:43:37;;;;;;;6.72;2.15;;;;;;;;;;5115917;28;20157;-70
2021/04/11 09:46:15;;;;;;;3.60;1.83;;;;;;;;;;5115590;28;20119;-71
2021/04/11 09:48:44;;;;;;;2.80;1.88;;;;;;;;;;5115614;28;20427;-71
2021/04/11 09:51:31;;;;;;;2.95;1.98;;;;;;;;;;5114424;28;20032;-71
2021/04/11 09:53:56;;;;;;;3.65;1.95;;;;;;;;;;5114559;28;20037;-71
2021/04/11 09:56:30;;;;;;;6.25;1.75;;;;;;;;;;5115311;27;20015;-71
2021/04/11 09:59:15;;;;;;;1.50;1.40;;;;;;;;;;5114672;28;20476;-71
2021/04/11 10:01:56;;;;;;;1.88;1.65;;;;;;;;;;5115618;28;20020;-71
2021/04/11 10:04:40;;;;;;;2.55;1.70;;;;;;;;;;5115411;28;20035;-71
2021/04/11 10:07:32;;;;;;;1.80;1.48;;;;;;;;;;5115320;28;20023;-71
2021/04/11 10:10:01;;;;;;;1.27;1.17;;;;;;;;;;5115229;28;20498;-71
2021/04/11 10:12:45;;;;;;;2.10;1.70;;;;;;;;;;5115263;28;20054;-71
2021/04/11 10:15:20;;;;;;;2.22;1.30;;;;;;;;;;5113764;28;20032;-72
2021/04/11 10:18:11;;;;;;;2.20;1.80;;;;;;;;;;5115223;28;20020;-72
2021/04/11 10:20:46;;;;;;;3.40;1.70;;;;;;;;;;5115203;28;20024;-72
2021/04/11 10:23:28;;;;;;;1.80;1.70;;;;;;;;;;5114877;28;20108;-72
2021/04/11 10:26:03;;;;;;;3.65;1.73;;;;;;;;;;5113287;28;20031;-71
2021/04/11 10:28:39;;;;;;;2.13;1.80;;;;;;;;;;5114986;28;20491;-71
2021/04/11 10:31:14;;;;;;;2.50;1.42;;;;;;;;;;5115056;28;20035;-71
2021/04/11 10:33:52;;;;;;;2.20;1.77;;;;;;;;;;5113481;28;20032;-71
2021/04/11 10:36:21;;;;;;;2.65;1.55;;;;;;;;;;5114768;28;20024;-71
2021/04/11 10:38:56;;;;;;;3.83;1.70;;;;;;;;;;5130860;27;20023;-71
2021/04/11 10:41:41;;;;;;;2.83;1.75;;;;;;;;;;5113651;28;20028;-71
2021/04/11 10:44:18;;;;;;;4.47;3.60;;;;;;;;;;5114660;28;20029;-71
2021/04/11 10:46:53;;;;;;;2.58;2.10;;;;;;;;;;5114503;28;20031;-71
2021/04/11 10:49:37;;;;;;;1.30;1.20;;;;;;;;;;5114575;28;20032;-71
2021/04/11 10:52:09;;;;;;;0.82;0.77;;;;;;;;;;5114367;28;20028;-71
2021/04/11 10:54:44;;;;;;;5.55;1.80;;;;;;;;;;5113109;28;20473;-72
2021/04/11 10:57:10;;;;;;;1.77;1.17;;;;;;;;;;5130026;27;20040;-72
2021/04/11 10:59:48;;;;;;;1.70;1.20;;;;;;;;;;5130117;27;20028;-68
2021/04/11 11:02:20;;;;;;;0.60;0.60;;;;;;;;;;5114714;28;20020;-68
2021/04/11 11:04:51;;;;;;;7.75;1.80;;;;;;;;;;5114346;28;20059;-68
2021/04/11 11:07:35;;;;;;;6.78;1.67;;;;;;;;;;5114623;28;20028;-68
2021/04/11 11:10:07;;;;;;;4.45;1.13;;;;;;;;;;5114506;28;20036;-68
2021/04/11 11:12:41;;;;;;;15.95;2.28;;;;;;;;;;5114303;28;20042;-68
2021/04/11 11:15:09;;;;;;;1.88;1.00;;;;;;;;;;5114117;28;20030;-68
2021/04/11 11:17:42;;;;;;;8.23;1.70;;;;;;;;;;5130185;27;20080;-72
2021/04/11 11:20:26;;;;;;;17.63;2.22;;;;;;;;;;5114304;28;20026;-72
2021/04/11 11:23:30;;;;;;;2.13;0.70;;;;;;;;;;5114295;28;20038;-72
2021/04/11 11:26:14;;;;;;;7.93;1.60;;;;;;;;;;5051766;28;20119;-72
2021/04/11 11:28:53;;;;;;;9.60;1.80;;;;;;;;;;5051508;28;20063;-72
2021/04/11 11:31:25;;;;;;;14.68;2.30;;;;;;;;;;5094175;28;20043;-72
2021/04/11 11:33:57;;;;;;;4.70;1.65;;;;;;;;;;5113810;28;20037;-72
2021/04/11 11:36:33;;;;;;;2.83;1.45;;;;;;;;;;5129476;27;20482;-72
2021/04/11 11:39:08;;;;;;;3.25;1.55;;;;;;;;;;5113528;28;20028;-72
2021/04/11 11:41:53;;;;;;;3.08;1.15;;;;;;;;;;5113375;28;20024;-72
2021/04/11 11:44:24;;;;;;;3.90;1.55;;;;;;;;;;5129746;27;20047;-72
2021/04/11 11:46:54;;;;;;;2.92;1.35;;;;;;;;;;5113665;28;20031;-72
2021/04/11 11:49:41;;;;;;;5.18;1.40;;;;;;;;;;5112467;28;20024;-72
2021/04/11 11:52:09;;;;;;;3.90;1.10;;;;;;;;;;5112880;28;20034;-71
2021/04/11 11:54:47;;;;;;;3.17;1.13;;;;;;;;;;5112977;28;20036;-71
2021/04/11 11:57:19;;;;;;;1.42;1.20;;;;;;;;;;5112419;28;20498;-71
2021/04/11 11:59:57;;;;;;;3.53;1.33;;;;;;;;;;5113459;28;20027;-71
2021/04/11 12:02:29;;;;;;;5.75;1.40;;;;;;;;;;5113666;28;20024;-71
2021/04/11 12:04:57;;;;;;;6.00;1.40;;;;;;;;;;5113493;28;20032;-71
2021/04/11 12:07:49;;;;;;;1.00;0.88;;;;;;;;;;5113765;28;20019;-71
2021/04/11 12:10:15;;;;;;;1.35;1.15;;;;;;;;;;5089578;28;20044;-71
2021/04/11 12:12:55;;;;;;;5.60;1.75;;;;;;;;;;5113728;28;20150;-71
2021/04/11 12:15:27;;;;;;;2.88;0.95;;;;;;;;;;5113754;28;20028;-71
2021/04/11 12:18:10;;;;;;;1.75;1.25;;;;;;;;;;5113839;28;20059;-71
2021/04/11 12:20:45;;;;;;;1.30;0.80;;;;;;;;;;5129834;28;20032;-71
2021/04/11 12:23:22;;;;;;;1.95;1.02;;;;;;;;;;5113876;28;20436;-71
2021/04/11 12:25:48;;;;;;;5.45;1.35;;;;;;;;;;5113520;28;20031;-71
2021/04/11 12:28:24;;;;;;;4.88;1.10;;;;;;;;;;5113503;28;20019;-66
2021/04/11 12:30:51;;;;;;;5.53;1.67;;;;;;;;;;5112091;28;20027;-66
2021/04/11 12:33:35;;;;;;;0.82;0.57;;;;;;;;;;5113549;28;20358;-66
2021/04/11 12:36:04;;;;;;;3.30;1.05;;;;;;;;;;5113321;28;20392;-66
2021/04/11 12:38:35;;;;;;;3.75;1.25;;;;;;;;;;5113587;28;20094;-71
2021/04/11 12:41:21;;;;;;;9.98;1.42;;;;;;;;;;5113262;28;20031;-71
2021/04/11 12:44:06;;;;;;;4.57;1.33;;;;;;;;;;5129460;28;20024;-71
2021/04/11 12:46:50;;;;;;;2.47;0.98;;;;;;;;;;5113267;28;20043;-67
2021/04/11 12:49:19;;;;;;;2.88;1.30;;;;;;;;;;5115566;28;20032;-71
2021/04/11 12:51:59;;;;;;;5.85;0.90;;;;;;;;;;5117196;28;20036;-67
2021/04/11 12:54:44;;;;;;;1.13;0.80;;;;;;;;;;5116891;28;20503;-67
2021/04/11 12:57:11;;;;;;;0.45;0.43;;;;;;;;;;5116322;28;20472;-67
2021/04/11 12:59:40;;;;;;;9.18;3.22;;;;;;;;;;5115507;28;20465;-67
2021/04/11 13:02:17;;;;;;;6.85;1.17;;;;;;;;;;5116898;28;20012;-67
2021/04/11 13:04:47;;;;;;;2.15;0.75;;;;;;;;;;5116917;28;20031;-67
2021/04/11 13:07:16;;;;;;;1.27;0.98;;;;;;;;;;5132986;27;20365;-67
2021/04/11 13:09:44;;;;;;;2.40;1.13;;;;;;;;;;5116909;28;20069;-67
2021/04/11 13:12:20;;;;;;;8.00;1.40;;;;;;;;;;5115450;28;20027;-67
2021/04/11 13:14:58;;;;;;;3.30;1.05;;;;;;;;;;5116469;28;20366;-68
2021/04/11 13:17:47;;;;;;;7.28;2.35;;;;;;;;;;5110747;28;20028;-67
2021/04/11 13:20:27;;;;;;;3.10;1.10;;;;;;;;;;5093896;28;20048;-67
2021/04/11 13:23:13;;;;;;;4.43;1.15;;;;;;;;;;5098548;28;20084;-67
2021/04/11 13:25:45;;;;;;;4.03;1.23;;;;;;;;;;5095933;28;20032;-67
2021/04/11 13:28:13;;;;;;;6.75;2.65;;;;;;;;;;5096086;28;20389;-67
2021/04/11 13:30:49;;;;;;;3.15;1.00;;;;;;;;;;5096147;28;20081;-67
2021/04/11 13:33:15;;;;;;;2.53;0.80;;;;;;;;;;5096251;28;20060;-67
2021/04/11 13:35:41;;;;;;;2.95;1.30;;;;;;;;;;5094618;28;20077;-68
2021/04/11 13:38:29;;;;;;;2.35;0.85;;;;;;;;;;5095882;28;20409;-67
2021/04/11 13:41:21;;;;;;;2.63;0.80;;;;;;;;;;5095779;28;20106;-67
2021/04/11 13:43:51;;;;;;;2.33;1.10;;;;;;;;;;5094066;28;20119;-67
2021/04/11 13:46:35;;;;;;;1.08;0.70;;;;;;;;;;5096092;28;20032;-67
2021/04/11 13:49:10;;;;;;;2.97;1.35;;;;;;;;;;5094390;28;20395;-67
2021/04/11 13:51:45;;;;;;;2.40;1.30;;;;;;;;;;5095941;28;20020;-67
2021/04/11 13:54:17;;;;;;;2.78;1.00;;;;;;;;;;5094534;28;20040;-67
2021/04/11 13:56:48;;;;;;;1.67;1.00;;;;;;;;;;5100649;28;20092;-68
2021/04/11 13:59:17;;;;;;;2.60;1.50;;;;;;;;;;5116202;28;20031;-67
2021/04/11 14:01:47;;;;;;;1.95;1.08;;;;;;;;;;5114447;28;20015;-66
2021/04/11 14:04:13;;;;;;;;;;;;;;;;;;5116185;28;20039;-66
2021/04/11 14:06:44;;;;;;;3.10;1.27;;;;;;;;;;5114763;28;19957;-66
2021/04/11 14:09:26;;;;;;;6.15;2.83;;;;;;;;;;5114519;28;20020;-66
2021/04/11 14:12:21;;;;;;;4.10;1.33;;;;;;;;;;5112728;28;20114;-66
2021/04/11 14:14:58;;;;;;;3.28;1.83;;;;;;;;;;5101599;28;20043;-67
2021/04/11 14:17:29;;;;;;;2.10;1.30;;;;;;;;;;5114552;28;20024;-67
2021/04/11 14:19:59;;;;;;;6.50;2.53;;;;;;;;;;5130442;27;20119;-66
2021/04/11 14:22:34;;;;;;;1.58;1.48;;;;;;;;;;5113504;28;20106;-67
2021/04/11 14:25:03;;;;;;;1.85;1.40;;;;;;;;;;5113810;28;20036;-67
2021/04/11 14:27:52;;;;;;;2.83;1.45;;;;;;;;;;5114827;28;20019;-67
2021/04/11 14:30:26;;;;;;;2.27;1.13;;;;;;;;;;5114825;28;20026;-67
2021/04/11 14:33:10;;;;;;;4.38;2.72;;;;;;;;;;5114759;28;20054;-67
2021/04/11 14:35:39;;;;;;;0.75;0.70;;;;;;;;;;5114691;28;20039;-66
2021/04/11 14:38:12;;;;;;;1.33;0.52;;;;;;;;;;5130488;27;20428;-67
2021/04/11 14:40:41;;;;;;;1.73;1.60;;;;;;;;;;5114952;28;20388;-67
2021/04/11 14:43:13;;;;;;;3.92;3.03;;;;;;;;;;5114889;28;20103;-66
2021/04/11 14:45:41;;;;;;;1.73;1.63;;;;;;;;;;5130528;27;20035;-67
2021/04/11 14:48:12;;;;;;;1.48;0.68;;;;;;;;;;5114643;28;20024;-67
2021/04/11 14:50:44;;;;;;;18.15;6.97;;;;;;;;;;5114596;28;20035;-66
2021/04/11 14:53:48;;;;;;;1.40;1.10;;;;;;;;;;5114398;27;20027;-66
2021/04/11 14:56:21;;;;;;;1.10;0.93;;;;;;;;;;5034730;28;20044;-66
2021/04/11 14:58:52;;;;;;;2.92;2.13;;;;;;;;;;5051855;28;20055;-66
2021/04/11 15:01:21;;;;;;;24.50;20.52;;;;;;;;;;5085879;28;20050;-66
2021/04/11 15:03:50;;;;;;;6.40;5.30;;;;;;;;;;5113081;28;20092;-66
2021/04/11 15:06:38;;;;;;;1.58;1.48;;;;;;;;;;5114182;28;20032;-66
2021/04/11 15:09:19;;;;;;;1.65;1.35;;;;;;;;;;5114470;28;20055;-66
2021/04/11 15:11:52;;;;;;;2.03;1.65;;;;;;;;;;5113678;28;20027;-65
2021/04/11 15:14:22;;;;;;;4.38;2.45;;;;;;;;;;5114069;28;20066;-66
2021/04/11 15:17:01;;;;;;;3.13;1.85;;;;;;;;;;5114095;28;20532;-66
2021/04/11 15:19:31;;;;;;;1.63;1.52;;;;;;;;;;5113988;28;20043;-66
2021/04/11 15:22:12;;;;;;;3.10;2.30;;;;;;;;;;5114061;28;20102;-66
2021/04/11 15:24:46;;;;;;;58.50;22.38;;;;;;;;;;5113975;28;20039;-65
2021/04/11 15:27:14;;;;;;;15.48;7.82;;;;;;;;;;5113939;28;20038;-66